Time;durP1;ratioP1;P1;durP2;ratioP2;P2;SDS_P1;SDS_P2;PMS_P1;PMS_P2;Temp;Humidity;BMP_temperature;BMP_pressure;BME280_temperature;BME280_humidity;BME280_pressure;Samples;Min_cycle;Max_cycle;Signal;HPM_P1;HPM_P2
2023/03/21 00:02:24;;;;;;;5.40;3.20;;;11.50;99.90;;;;;;5052427;28;20244;-57
2023/03/21 00:04:52;;;;;;;8.33;3.40;;;11.50;99.90;;;;;;5052243;28;20209;-57
2023/03/21 00:07:19;;;;;;;3.87;3.47;;;11.50;99.90;;;;;;5052601;28;20211;-58
2023/03/21 00:09:45;;;;;;;3.87;2.83;;;11.50;99.90;;;;;;5052072;28;20584;-56
2023/03/21 00:12:13;;;;;;;3.47;3.17;;;11.60;99.90;;;;;;5051945;28;20739;-58
2023/03/21 00:14:40;;;;;;;5.53;3.20;;;11.60;99.90;;;;;;5052143;28;20232;-57
2023/03/21 00:17:06;;;;;;;5.80;3.63;;;11.60;99.90;;;;;;5052054;28;20206;-56
2023/03/21 00:19:37;;;;;;;4.03;3.00;;;11.60;99.90;;;;;;5051920;28;20217;-55
2023/03/21 00:22:05;;;;;;;5.60;3.07;;;11.50;99.90;;;;;;5051822;28;20609;-55
2023/03/21 00:24:32;;;;;;;6.53;3.07;;;11.40;99.90;;;;;;5052274;28;20216;-55
2023/03/21 00:26:59;;;;;;;4.90;2.90;;;11.40;99.90;;;;;;5052266;28;20208;-56
2023/03/21 00:29:26;;;;;;;5.00;2.80;;;11.40;99.90;;;;;;5052011;28;20216;-55
2023/03/21 00:31:53;;;;;;;3.33;2.73;;;11.40;99.90;;;;;;5052253;28;20230;-55
2023/03/21 00:34:20;;;;;;;4.20;3.33;;;11.40;99.90;;;;;;5051677;28;20209;-55
2023/03/21 00:36:47;;;;;;;4.20;3.07;;;11.40;99.90;;;;;;5052045;28;20210;-55
2023/03/21 00:39:15;;;;;;;4.10;3.13;;;11.40;99.90;;;;;;5051859;28;20698;-55
2023/03/21 00:41:41;;;;;;;4.20;3.10;;;11.40;99.90;;;;;;5055778;28;20602;-54
2023/03/21 00:44:08;;;;;;;3.90;3.03;;;11.40;99.90;;;;;;5055710;28;20696;-55
2023/03/21 00:46:35;;;;;;;6.30;3.17;;;11.40;99.90;;;;;;5055539;28;20209;-56
2023/03/21 00:49:02;;;;;;;5.60;2.93;;;11.50;99.90;;;;;;5055645;28;20231;-55
2023/03/21 00:51:29;;;;;;;3.60;2.93;;;11.50;99.90;;;;;;5055842;28;20233;-55
2023/03/21 00:53:58;;;;;;;4.73;2.73;;;11.50;99.90;;;;;;5055651;28;20232;-57
2023/03/21 00:56:26;;;;;;;3.70;2.70;;;11.50;99.90;;;;;;5055617;28;20209;-57
2023/03/21 00:58:53;;;;;;;4.23;2.93;;;11.40;99.90;;;;;;5055795;28;20653;-55
2023/03/21 01:01:20;;;;;;;2.97;2.67;;;11.40;99.90;;;;;;5055221;28;20216;-58
2023/03/21 01:03:49;;;;;;;4.07;2.90;;;11.30;99.90;;;;;;5055515;28;20206;-56
2023/03/21 01:06:19;;;;;;;3.63;3.23;;;11.20;99.90;;;;;;5055648;28;20259;-56
2023/03/21 01:08:47;;;;;;;4.40;3.03;;;11.10;99.90;;;;;;5055478;28;20620;-56
2023/03/21 01:11:17;;;;;;;6.30;3.57;;;11.10;99.90;;;;;;5055372;28;20214;-56
2023/03/21 01:13:46;;;;;;;5.60;2.93;;;11.00;99.90;;;;;;5055163;28;20225;-56
2023/03/21 01:16:13;;;;;;;4.67;2.90;;;11.00;99.90;;;;;;5055343;28;20209;-56
2023/03/21 01:18:41;;;;;;;5.53;3.17;;;10.90;99.90;;;;;;5055112;28;20205;-55
2023/03/21 01:21:11;;;;;;;3.57;3.20;;;10.90;99.90;;;;;;5055148;28;20206;-56
2023/03/21 01:23:39;;;;;;;3.73;2.70;;;10.90;99.90;;;;;;5055205;28;20488;-56
2023/03/21 01:26:07;;;;;;;5.43;3.40;;;10.90;99.90;;;;;;5054974;28;20216;-57
2023/03/21 01:28:36;;;;;;;5.70;3.30;;;10.90;99.90;;;;;;5055041;28;20210;-56
2023/03/21 01:31:05;;;;;;;4.30;3.10;;;10.90;99.90;;;;;;5055136;28;20216;-57
2023/03/21 01:33:33;;;;;;;4.60;3.13;;;11.00;99.90;;;;;;5054958;28;20263;-56
2023/03/21 01:36:01;;;;;;;4.47;3.60;;;11.00;99.90;;;;;;5055021;28;20233;-56
2023/03/21 01:38:28;;;;;;;4.00;2.70;;;11.00;99.90;;;;;;5054776;28;20212;-56
2023/03/21 01:40:54;;;;;;;4.50;3.07;;;11.10;99.90;;;;;;5055360;28;20215;-57
2023/03/21 01:43:24;;;;;;;4.10;2.90;;;11.10;99.90;;;;;;5056124;28;20217;-56
2023/03/21 01:46:22;;;;;;;3.63;3.10;;;11.10;99.90;;;;;;5055367;28;20296;-57
2023/03/21 01:48:53;;;;;;;6.43;3.20;;;11.00;99.90;;;;;;5054998;28;20301;-57
2023/03/21 01:51:22;;;;;;;6.37;3.30;;;11.00;99.90;;;;;;5054415;28;20202;-56
2023/03/21 01:53:49;;;;;;;5.70;3.17;;;11.00;99.90;;;;;;5054938;28;20225;-56
2023/03/21 01:56:22;;;;;;;4.20;3.20;;;11.00;99.90;;;;;;5054667;28;20205;-56
2023/03/21 01:58:50;;;;;;;5.00;3.30;;;11.10;99.90;;;;;;5054691;28;20600;-57
2023/03/21 02:01:21;;;;;;;3.77;3.20;;;11.20;99.90;;;;;;5054347;28;20666;-57
2023/03/21 02:03:51;;;;;;;5.77;3.03;;;11.20;99.90;;;;;;5054759;28;20227;-56
2023/03/21 02:06:30;;;;;;;3.77;3.00;;;11.20;99.90;;;;;;5054530;28;20241;-57
2023/03/21 02:09:07;;;;;;;5.03;2.97;;;11.20;99.90;;;;;;5054245;28;20252;-55
2023/03/21 02:11:35;;;;;;;4.17;3.03;;;11.20;99.90;;;;;;5054120;28;20704;-56
2023/03/21 02:14:02;;;;;;;4.20;3.00;;;11.10;99.90;;;;;;5054220;28;20324;-56
2023/03/21 02:16:44;;;;;;;6.33;3.13;;;11.20;99.90;;;;;;5054186;28;20261;-56
2023/03/21 02:19:31;;;;;;;3.23;2.80;;;11.20;99.90;;;;;;5054211;28;20232;-56
2023/03/21 02:22:22;;;;;;;4.37;2.90;;;11.10;99.90;;;;;;5054024;28;20593;-56
2023/03/21 02:25:43;;;;;;;5.17;2.93;;;11.10;99.90;;;;;;5044243;28;20732;-56
2023/03/21 02:28:14;;;;;;;3.93;2.80;;;11.00;99.90;;;;;;5053998;28;20213;-56
2023/03/21 02:31:17;;;;;;;5.67;3.10;;;10.90;99.90;;;;;;5054008;28;20248;-56
2023/03/21 02:34:43;;;;;;;3.70;3.03;;;10.80;99.90;;;;;;5053796;28;20229;-55
2023/03/21 02:37:20;;;;;;;4.37;2.87;;;10.70;99.90;;;;;;4992044;28;20609;-58
2023/03/21 02:40:09;;;;;;;3.47;2.70;;;10.60;99.90;;;;;;4991992;28;20619;-56
2023/03/21 02:42:49;;;;;;;4.57;3.00;;;10.70;99.90;;;;;;5032745;28;20709;-57
2023/03/21 02:45:19;;;;;;;4.23;2.73;;;10.70;99.90;;;;;;5054085;28;20220;-56
2023/03/21 02:47:51;;;;;;;5.13;3.00;;;10.80;99.90;;;;;;5053781;28;20708;-57
2023/03/21 02:50:23;;;;;;;7.67;3.37;;;10.80;99.90;;;;;;5053793;28;20297;-56
2023/03/21 02:52:53;;;;;;;4.63;3.20;;;10.90;99.90;;;;;;5054081;28;20229;-56
2023/03/21 02:55:24;;;;;;;5.20;3.20;;;11.00;99.90;;;;;;5053960;28;20217;-56
2023/03/21 02:57:54;;;;;;;5.83;3.20;;;11.00;99.90;;;;;;5054038;28;20674;-56
2023/03/21 03:00:23;;;;;;;3.97;2.90;;;11.00;99.90;;;;;;5054279;28;20544;-57
2023/03/21 03:02:50;;;;;;;4.03;3.20;;;11.00;99.90;;;;;;5053708;28;20235;-58
2023/03/21 03:05:20;;;;;;;3.17;2.63;;;11.00;99.90;;;;;;5054347;28;20205;-58
2023/03/21 03:08:06;;;;;;;5.20;3.17;;;11.00;99.90;;;;;;5055369;28;20287;-58
2023/03/21 03:11:00;;;;;;;5.10;3.00;;;10.90;99.90;;;;;;5054423;28;20570;-58
2023/03/21 03:13:41;;;;;;;4.83;3.37;;;11.00;99.90;;;;;;5052188;28;20233;-57
2023/03/21 03:16:17;;;;;;;5.73;3.20;;;11.00;99.90;;;;;;5054646;28;20275;-58
2023/03/21 03:18:51;;;;;;;5.87;3.33;;;11.00;99.90;;;;;;5054106;28;20213;-58
2023/03/21 03:21:22;;;;;;;4.70;3.27;;;10.90;99.90;;;;;;5054287;28;20579;-58
2023/03/21 03:23:55;;;;;;;5.20;3.40;;;10.90;99.90;;;;;;5055249;28;20347;-58
2023/03/21 03:26:26;;;;;;;5.23;3.30;;;10.90;99.90;;;;;;5054250;28;20296;-58
2023/03/21 03:28:57;;;;;;;5.07;3.03;;;10.90;99.90;;;;;;5053678;28;20205;-58
2023/03/21 03:31:29;;;;;;;6.57;3.87;;;10.90;99.90;;;;;;5053271;28;20206;-57
2023/03/21 03:34:01;;;;;;;7.17;3.70;;;10.90;99.90;;;;;;5053308;28;20229;-58
2023/03/21 03:36:35;;;;;;;7.03;3.67;;;10.90;99.90;;;;;;5053278;28;20209;-57
2023/03/21 03:39:07;;;;;;;4.90;3.47;;;10.80;99.90;;;;;;5053289;28;20210;-62
2023/03/21 03:41:40;;;;;;;4.03;3.40;;;10.80;99.90;;;;;;5053210;28;20220;-58
2023/03/21 03:44:08;;;;;;;4.30;3.30;;;10.80;99.90;;;;;;5053436;28;20624;-58
2023/03/21 03:46:41;;;;;;;4.83;3.47;;;10.80;99.90;;;;;;5053120;28;20205;-57
2023/03/21 03:49:14;;;;;;;4.67;3.50;;;10.80;99.90;;;;;;5053319;28;20201;-60
2023/03/21 03:51:48;;;;;;;4.37;3.53;;;10.90;99.90;;;;;;5053031;28;20232;-58
2023/03/21 03:54:20;;;;;;;4.73;3.30;;;10.90;99.90;;;;;;5052694;28;20588;-58
2023/03/21 03:56:47;;;;;;;5.00;3.30;;;11.00;99.90;;;;;;5053422;28;20217;-58
2023/03/21 03:59:18;;;;;;;4.17;3.40;;;11.00;99.90;;;;;;5052921;28;20232;-58
2023/03/21 04:01:44;;;;;;;6.03;3.20;;;11.00;99.90;;;;;;5052528;28;20233;-57
2023/03/21 04:04:12;;;;;;;4.53;3.13;;;11.00;99.90;;;;;;5052980;28;20205;-58
2023/03/21 04:06:39;;;;;;;4.30;3.07;;;11.00;99.90;;;;;;5052973;28;20213;-57
2023/03/21 04:09:07;;;;;;;8.70;3.40;;;11.00;99.90;;;;;;5052920;28;20205;-58
2023/03/21 04:11:35;;;;;;;4.30;3.10;;;11.00;99.90;;;;;;5052930;28;20240;-58
2023/03/21 04:14:02;;;;;;;3.50;3.17;;;11.00;99.90;;;;;;5053009;28;20712;-58
2023/03/21 04:16:30;;;;;;;5.20;3.43;;;10.90;99.90;;;;;;5056874;28;20209;-58
2023/03/21 04:18:57;;;;;;;3.67;3.07;;;10.90;99.90;;;;;;5056728;28;20205;-58
2023/03/21 04:21:23;;;;;;;5.70;3.30;;;10.90;99.90;;;;;;5056639;28;20284;-57
2023/03/21 04:23:53;;;;;;;7.27;3.83;;;10.90;99.90;;;;;;5056547;28;20201;-58
2023/03/21 04:26:21;;;;;;;4.77;3.70;;;10.90;99.90;;;;;;5056875;28;20237;-58
2023/03/21 04:28:50;;;;;;;8.57;4.93;;;10.90;99.90;;;;;;5056296;28;20576;-58
2023/03/21 04:31:17;;;;;;;3.73;2.87;;;10.90;99.90;;;;;;5056465;28;20212;-58
2023/03/21 04:33:46;;;;;;;6.53;3.77;;;10.90;99.90;;;;;;5056350;28;20597;-58
2023/03/21 04:36:23;;;;;;;7.30;3.47;;;10.90;99.90;;;;;;5056520;28;20660;-58
2023/03/21 04:38:51;;;;;;;5.60;3.30;;;10.80;99.90;;;;;;5056867;28;20209;-58
2023/03/21 04:41:18;;;;;;;7.30;3.30;;;10.80;99.90;;;;;;5056429;28;20217;-57
2023/03/21 04:43:46;;;;;;;7.57;3.23;;;10.70;99.90;;;;;;5056355;28;20209;-58
2023/03/21 04:46:14;;;;;;;5.57;3.27;;;10.60;99.90;;;;;;5056276;28;20256;-58
2023/03/21 04:48:41;;;;;;;4.20;2.87;;;10.60;99.90;;;;;;5056039;28;20662;-58
2023/03/21 04:51:08;;;;;;;6.03;3.30;;;10.50;99.90;;;;;;5055965;28;20232;-57
2023/03/21 04:53:37;;;;;;;8.23;3.20;;;10.50;99.90;;;;;;5056098;28;20229;-58
2023/03/21 04:56:04;;;;;;;5.43;3.30;;;10.50;99.90;;;;;;5056148;28;20244;-58
2023/03/21 04:58:31;;;;;;;6.03;3.70;;;10.50;99.90;;;;;;5055525;28;20213;-58
2023/03/21 05:00:57;;;;;;;4.13;3.57;;;10.40;99.90;;;;;;5055836;28;20210;-58
2023/03/21 05:03:28;;;;;;;5.47;3.77;;;10.40;99.90;;;;;;5055786;28;20236;-58
2023/03/21 05:05:56;;;;;;;6.10;3.63;;;10.30;99.90;;;;;;5056191;28;20210;-58
2023/03/21 05:08:23;;;;;;;4.77;3.47;;;10.30;99.90;;;;;;5056389;28;20259;-58
2023/03/21 05:10:50;;;;;;;9.90;6.67;;;10.40;99.90;;;;;;5057035;28;20193;-58
2023/03/21 05:13:17;;;;;;;5.97;3.20;;;10.40;99.90;;;;;;5056841;28;20229;-58
2023/03/21 05:15:44;;;;;;;5.93;3.90;;;10.40;99.90;;;;;;5056491;28;20225;-58
2023/03/21 05:18:10;;;;;;;7.27;3.80;;;10.50;99.90;;;;;;5056287;28;20209;-58
2023/03/21 05:20:41;;;;;;;5.43;3.33;;;10.50;99.90;;;;;;5055320;28;20213;-58
2023/03/21 05:23:09;;;;;;;6.97;3.60;;;10.50;99.90;;;;;;5056055;28;20295;-57
2023/03/21 05:25:36;;;;;;;6.13;3.40;;;10.50;99.90;;;;;;5054878;28;20284;-57
2023/03/21 05:28:05;;;;;;;4.50;3.37;;;10.50;99.90;;;;;;5054454;28;20275;-58
2023/03/21 05:30:32;;;;;;;4.27;3.07;;;10.50;99.90;;;;;;5055277;28;20202;-58
2023/03/21 05:32:59;;;;;;;6.13;3.50;;;10.50;99.90;;;;;;5055301;28;20233;-59
2023/03/21 05:35:26;;;;;;;5.37;3.50;;;10.40;99.90;;;;;;5054882;28;20588;-58
2023/03/21 05:37:55;;;;;;;5.33;3.47;;;10.40;99.90;;;;;;5055106;28;20569;-58
2023/03/21 05:40:22;;;;;;;4.37;3.37;;;10.30;99.90;;;;;;5054903;28;20212;-58
2023/03/21 05:42:49;;;;;;;4.37;3.57;;;10.40;99.90;;;;;;5055385;28;20601;-58
2023/03/21 05:45:16;;;;;;;7.00;4.17;;;10.40;99.90;;;;;;5055223;28;20228;-58
2023/03/21 05:47:43;;;;;;;6.80;3.70;;;10.50;99.90;;;;;;5055052;28;20211;-58
2023/03/21 05:50:12;;;;;;;7.27;3.30;;;10.50;99.90;;;;;;5054773;28;20209;-58
2023/03/21 05:52:39;;;;;;;4.53;3.30;;;10.60;99.90;;;;;;5054852;28;20485;-58
2023/03/21 05:55:07;;;;;;;7.77;3.97;;;10.60;99.90;;;;;;5054570;28;20222;-58
2023/03/21 05:57:38;;;;;;;6.73;4.07;;;10.70;99.90;;;;;;5054882;28;20210;-58
2023/03/21 06:00:06;;;;;;;6.13;3.97;;;10.80;99.90;;;;;;5054365;28;20202;-58
2023/03/21 06:02:33;;;;;;;5.50;3.60;;;10.90;99.90;;;;;;5054515;28;20290;-58
2023/03/21 06:05:00;;;;;;;4.00;3.20;;;10.90;99.90;;;;;;5054587;28;20205;-58
2023/03/21 06:07:27;;;;;;;4.90;3.20;;;10.90;99.90;;;;;;5054333;28;20227;-58
2023/03/21 06:09:53;;;;;;;4.27;3.17;;;10.70;99.90;;;;;;5054439;28;20256;-59
2023/03/21 06:12:21;;;;;;;5.07;3.57;;;10.70;99.90;;;;;;5054085;28;20743;-59
2023/03/21 06:14:48;;;;;;;4.73;3.70;;;10.70;99.90;;;;;;5054405;28;20225;-59
2023/03/21 06:17:15;;;;;;;4.23;3.57;;;10.90;99.90;;;;;;5054526;28;20210;-59
2023/03/21 06:19:42;;;;;;;4.07;3.50;;;11.00;99.90;;;;;;5054090;28;20206;-58
2023/03/21 06:22:09;;;;;;;7.03;3.80;;;11.10;99.90;;;;;;5054163;28;20733;-59
2023/03/21 06:24:36;;;;;;;6.20;3.97;;;11.10;99.90;;;;;;5053950;28;20213;-58
2023/03/21 06:27:03;;;;;;;6.00;3.63;;;11.20;99.90;;;;;;5053925;28;20201;-58
2023/03/21 06:29:31;;;;;;;5.33;3.60;;;11.30;99.90;;;;;;5053662;28;20214;-58
2023/03/21 06:31:58;;;;;;;4.50;3.50;;;11.30;99.90;;;;;;5053811;28;20233;-59
2023/03/21 06:34:25;;;;;;;6.33;3.50;;;11.30;99.90;;;;;;5053718;28;20721;-58
2023/03/21 06:36:53;;;;;;;5.00;3.10;;;11.40;99.90;;;;;;5053992;28;20205;-57
2023/03/21 06:39:20;;;;;;;7.20;3.30;;;11.60;99.90;;;;;;5054030;28;20202;-57
2023/03/21 06:41:47;;;;;;;4.63;3.50;;;11.70;99.90;;;;;;5053644;28;20724;-58
2023/03/21 06:44:14;;;;;;;6.50;4.23;;;11.80;99.90;;;;;;5053769;28;20198;-57
2023/03/21 06:46:42;;;;;;;4.80;3.30;;;11.70;99.90;;;;;;5053709;28;20205;-56
2023/03/21 06:49:09;;;;;;;6.67;3.50;;;11.70;99.90;;;;;;5048527;28;20209;-61
2023/03/21 06:51:36;;;;;;;5.00;2.93;;;11.80;99.90;;;;;;5053590;28;20312;-60
2023/03/21 06:54:03;;;;;;;4.97;3.50;;;11.90;99.90;;;;;;5054293;28;20197;-60
2023/03/21 06:56:29;;;;;;;3.90;2.90;;;12.10;99.90;;;;;;5053527;28;20569;-59
2023/03/21 06:58:56;;;;;;;4.73;3.30;;;12.20;99.90;;;;;;5052994;28;20202;-60
2023/03/21 07:01:23;;;;;;;8.23;3.40;;;12.30;99.90;;;;;;5053893;28;20202;-59
2023/03/21 07:03:52;;;;;;;3.93;3.10;;;12.40;99.90;;;;;;5053507;28;20742;-59
2023/03/21 07:06:19;;;;;;;5.57;3.33;;;12.30;99.90;;;;;;5054026;28;20296;-59
2023/03/21 07:08:46;;;;;;;7.43;3.37;;;12.30;99.90;;;;;;5053213;28;20235;-59
2023/03/21 07:11:14;;;;;;;3.97;3.20;;;12.20;99.90;;;;;;5053990;28;20292;-59
2023/03/21 07:13:41;;;;;;;6.80;3.37;;;12.30;99.90;;;;;;5053399;28;20201;-60
2023/03/21 07:16:09;;;;;;;3.70;3.33;;;12.40;99.90;;;;;;5053688;28;20233;-61
2023/03/21 07:18:36;;;;;;;4.80;3.27;;;12.50;99.90;;;;;;5053788;28;20205;-60
2023/03/21 07:21:04;;;;;;;5.13;3.27;;;12.80;99.90;;;;;;5053388;28;20300;-59
2023/03/21 07:23:31;;;;;;;7.13;3.63;;;13.10;99.90;;;;;;5053542;28;20332;-59
2023/03/21 07:25:58;;;;;;;5.43;3.13;;;13.50;99.90;;;;;;5053572;28;20202;-59
2023/03/21 07:28:25;;;;;;;6.50;3.10;;;13.70;99.90;;;;;;5053407;28;20228;-59
2023/03/21 07:30:54;;;;;;;8.33;3.17;;;13.80;99.90;;;;;;5052985;28;20689;-59
2023/03/21 07:33:22;;;;;;;5.53;3.27;;;13.90;99.90;;;;;;5053181;28;20233;-59
2023/03/21 07:35:49;;;;;;;6.83;3.13;;;14.00;99.90;;;;;;5053002;28;20233;-59
2023/03/21 07:38:17;;;;;;;5.37;3.53;;;14.20;99.90;;;;;;5053509;28;20678;-59
2023/03/21 07:40:44;;;;;;;5.67;3.43;;;14.60;99.90;;;;;;5052972;28;20209;-64
2023/03/21 07:43:11;;;;;;;4.82;3.10;;;15.20;99.90;;;;;;5050207;28;20529;-58
2023/03/21 07:45:38;;;;;;;4.53;2.90;;;16.10;99.90;;;;;;5051539;28;20648;-61
2023/03/21 07:48:05;;;;;;;4.20;2.67;;;16.90;99.90;;;;;;5051710;28;20209;-60
2023/03/21 07:50:32;;;;;;;4.90;2.70;;;17.20;99.90;;;;;;5050926;28;20213;-60
2023/03/21 07:52:59;;;;;;;4.80;2.40;;;17.20;99.90;;;;;;5051821;28;20300;-63
2023/03/21 07:55:28;;;;;;;4.85;2.65;;;17.00;99.90;;;;;;5052134;28;20249;-61
2023/03/21 07:57:55;;;;;;;4.10;2.42;;;16.70;99.90;;;;;;5052178;28;20601;-62
2023/03/21 08:00:22;;;;;;;3.72;2.58;;;16.50;99.90;;;;;;5051671;28;20206;-61
2023/03/21 08:02:53;;;;;;;3.10;2.53;;;16.40;99.90;;;;;;5052150;28;20244;-60
2023/03/21 08:05:21;;;;;;;4.03;2.92;;;16.30;99.90;;;;;;5052101;28;20631;-61
2023/03/21 08:07:47;;;;;;;5.72;2.95;;;16.20;99.90;;;;;;5051714;28;20685;-61
2023/03/21 08:10:14;;;;;;;7.30;4.88;;;16.40;99.90;;;;;;5051510;28;20626;-65
2023/03/21 08:12:42;;;;;;;3.65;2.20;;;16.60;99.90;;;;;;5052247;28;20226;-59
2023/03/21 08:15:11;;;;;;;3.60;2.90;;;16.70;99.90;;;;;;5051722;28;20596;-60
2023/03/21 08:17:38;;;;;;;2.80;1.95;;;16.80;99.90;;;;;;5051755;28;20669;-59
2023/03/21 08:20:08;;;;;;;3.28;2.30;;;16.90;99.90;;;;;;5051404;28;20300;-63
2023/03/21 08:22:35;;;;;;;3.38;2.30;;;16.90;99.90;;;;;;5051297;28;20229;-58
2023/03/21 08:25:03;;;;;;;4.55;2.50;;;17.00;99.90;;;;;;5052476;28;20206;-60
2023/03/21 08:27:30;;;;;;;3.50;1.90;;;17.10;99.90;;;;;;5051582;28;20267;-60
2023/03/21 08:29:59;;;;;;;2.92;2.28;;;17.30;99.90;;;;;;5051187;28;20228;-59
2023/03/21 08:32:28;;;;;;;3.38;1.98;;;17.50;99.90;;;;;;5051002;28;20253;-58
2023/03/21 08:34:56;;;;;;;1.98;1.70;;;17.60;99.90;;;;;;5050698;28;20316;-57
2023/03/21 08:37:23;;;;;;;3.33;2.03;;;17.60;99.90;;;;;;5050735;28;20208;-59
2023/03/21 08:39:50;;;;;;;4.10;1.75;;;17.60;99.90;;;;;;5050931;28;20237;-60
2023/03/21 08:42:17;;;;;;;3.35;1.52;;;17.50;99.90;;;;;;5051344;28;20226;-61
2023/03/21 08:44:44;;;;;;;3.97;1.77;;;17.40;99.90;;;;;;5050982;28;20696;-59
2023/03/21 08:47:12;;;;;;;2.20;1.60;;;17.20;99.90;;;;;;5050629;28;20224;-59
2023/03/21 08:49:40;;;;;;;3.15;2.28;;;16.90;99.90;;;;;;5051060;28;20213;-57
2023/03/21 08:52:07;;;;;;;1.95;1.75;;;16.50;99.90;;;;;;5050506;28;20237;-57
2023/03/21 08:54:34;;;;;;;7.05;4.88;;;16.40;99.90;;;;;;5050718;28;20221;-58
2023/03/21 08:57:00;;;;;;;1.98;1.20;;;16.30;99.90;;;;;;5050574;28;20275;-58
2023/03/21 08:59:27;;;;;;;3.13;1.52;;;16.10;99.90;;;;;;5050036;28;20206;-57
2023/03/21 09:01:54;;;;;;;3.72;1.73;;;16.00;99.90;;;;;;5053756;28;20237;-57
2023/03/21 09:04:24;;;;;;;2.30;1.50;;;15.90;99.90;;;;;;5054439;28;20202;-57
2023/03/21 09:06:51;;;;;;;4.03;1.88;;;15.70;99.90;;;;;;5054349;28;20197;-57
2023/03/21 09:09:18;;;;;;;2.40;1.50;;;15.70;99.90;;;;;;5054229;28;20297;-57
2023/03/21 09:11:45;;;;;;;2.97;1.30;;;15.80;99.90;;;;;;5053805;28;20226;-57
2023/03/21 09:14:12;;;;;;;2.42;1.38;;;16.00;99.90;;;;;;5054008;28;20205;-58
2023/03/21 09:16:40;;;;;;;2.80;1.73;;;16.10;99.90;;;;;;5054374;28;20221;-57
2023/03/21 09:19:07;;;;;;;2.10;1.40;;;16.30;99.90;;;;;;5053473;28;20275;-57
2023/03/21 09:21:37;;;;;;;1.95;1.45;;;16.20;99.90;;;;;;5053980;28;20208;-57
2023/03/21 09:24:04;;;;;;;2.38;1.38;;;16.30;99.90;;;;;;5053951;28;20577;-57
2023/03/21 09:26:31;;;;;;;3.53;1.60;;;16.40;99.90;;;;;;5053913;28;20237;-57
2023/03/21 09:28:59;;;;;;;4.60;1.40;;;16.40;99.90;;;;;;5053610;28;20205;-57
2023/03/21 09:31:27;;;;;;;2.92;1.33;;;16.50;99.90;;;;;;5053541;28;20259;-57
2023/03/21 09:33:54;;;;;;;4.05;1.65;;;16.60;99.90;;;;;;5053693;28;20209;-57
2023/03/21 09:36:23;;;;;;;2.25;1.45;;;16.90;99.90;;;;;;5053638;28;20268;-57
2023/03/21 09:38:52;;;;;;;4.40;1.50;;;17.00;99.90;;;;;;5054048;28;20719;-57
2023/03/21 09:41:37;;;;;;;4.20;1.67;;;17.10;99.90;;;;;;5053502;28;20210;-57
2023/03/21 09:44:17;;;;;;;2.90;1.50;;;17.20;99.80;;;;;;5053573;28;20194;-57
2023/03/21 09:46:50;;;;;;;4.15;1.70;;;17.30;99.50;;;;;;5053371;28;20205;-57
2023/03/21 09:49:24;;;;;;;5.50;1.88;;;17.50;98.90;;;;;;5053357;28;20244;-57
2023/03/21 09:51:54;;;;;;;2.38;1.60;;;17.70;98.40;;;;;;5053731;28;20232;-58
2023/03/21 09:54:26;;;;;;;2.95;1.88;;;17.80;98.50;;;;;;5053831;28;20224;-58
2023/03/21 09:56:55;;;;;;;3.58;1.90;;;17.90;98.20;;;;;;5053904;28;20232;-57
2023/03/21 09:59:28;;;;;;;2.80;1.75;;;18.00;97.80;;;;;;5053360;28;20296;-58
2023/03/21 10:01:57;;;;;;;3.22;1.80;;;18.20;97.80;;;;;;5053138;28;20237;-58
2023/03/21 10:04:25;;;;;;;2.30;1.50;;;18.30;97.50;;;;;;5053909;28;20239;-57
2023/03/21 10:06:57;;;;;;;2.38;1.33;;;18.50;96.60;;;;;;5053783;28;20197;-58
2023/03/21 10:09:28;;;;;;;3.15;1.77;;;18.70;96.70;;;;;;5054307;28;20202;-57
2023/03/21 10:11:59;;;;;;;3.25;1.75;;;18.80;96.90;;;;;;5053520;28;20225;-56
2023/03/21 10:14:30;;;;;;;1.90;1.25;;;19.00;96.90;;;;;;5054202;28;20673;-56
2023/03/21 10:16:59;;;;;;;3.25;1.58;;;19.30;95.60;;;;;;5054265;28;20291;-58
2023/03/21 10:19:28;;;;;;;2.88;1.70;;;19.40;95.00;;;;;;5053433;28;20212;-58
2023/03/21 10:21:55;;;;;;;4.60;1.95;;;19.50;95.50;;;;;;5054250;28;20221;-58
2023/03/21 10:24:24;;;;;;;3.97;1.65;;;19.70;95.00;;;;;;5054070;28;20215;-59
2023/03/21 10:26:54;;;;;;;1.90;1.30;;;19.80;94.70;;;;;;5054178;28;20197;-57
2023/03/21 10:29:23;;;;;;;2.85;1.40;;;20.00;93.50;;;;;;5054332;28;20202;-57
2023/03/21 10:31:52;;;;;;;2.22;1.55;;;20.10;92.60;;;;;;5054096;28;20253;-58
2023/03/21 10:34:32;;;;;;;3.45;1.50;;;20.10;92.10;;;;;;5053903;28;20699;-58
2023/03/21 10:37:01;;;;;;;3.30;1.40;;;20.20;92.20;;;;;;5054087;28;20229;-58
2023/03/21 10:39:33;;;;;;;1.98;1.30;;;20.30;92.10;;;;;;5054257;28;20221;-57
2023/03/21 10:42:02;;;;;;;2.65;1.50;;;20.30;91.00;;;;;;5055115;28;20230;-57
2023/03/21 10:44:32;;;;;;;1.40;1.08;;;20.40;91.30;;;;;;5055495;28;20259;-58
2023/03/21 10:47:05;;;;;;;1.70;1.15;;;20.60;90.40;;;;;;5054765;28;20296;-57
2023/03/21 10:49:32;;;;;;;2.65;1.10;;;20.70;87.50;;;;;;5054634;28;20205;-57
2023/03/21 10:52:03;;;;;;;4.40;1.17;;;20.80;86.60;;;;;;5054933;28;20997;-57
2023/03/21 10:54:32;;;;;;;1.38;0.80;;;20.90;85.20;;;;;;5054824;28;20224;-58
2023/03/21 10:57:03;;;;;;;2.47;1.27;;;21.00;84.40;;;;;;5055684;28;20257;-57
2023/03/21 10:59:38;;;;;;;3.33;1.00;;;21.10;84.70;;;;;;5053449;28;20205;-57
2023/03/21 11:02:05;;;;;;;1.45;0.80;;;21.20;83.40;;;;;;5054070;28;20236;-58
2023/03/21 11:04:33;;;;;;;1.25;0.80;;;21.30;81.50;;;;;;5054824;28;20206;-57
2023/03/21 11:07:05;;;;;;;2.30;1.00;;;21.50;80.80;;;;;;5054407;28;20202;-57
2023/03/21 11:09:45;;;;;;;1.13;1.00;;;21.50;79.60;;;;;;5054690;28;20727;-58
2023/03/21 11:12:15;;;;;;;1.83;1.02;;;21.70;79.50;;;;;;5054145;28;20318;-57
2023/03/21 11:14:45;;;;;;;1.63;1.30;;;22.00;79.50;;;;;;5054567;28;20202;-57
2023/03/21 11:17:24;;;;;;;2.25;1.50;;;22.10;79.60;;;;;;5053297;28;20225;-57
2023/03/21 11:19:52;;;;;;;1.67;1.33;;;22.20;82.90;;;;;;5054040;28;20209;-57
2023/03/21 11:22:22;;;;;;;3.03;1.95;;;22.30;83.20;;;;;;5053910;28;20234;-58
2023/03/21 11:24:53;;;;;;;2.97;1.50;;;22.40;82.80;;;;;;5053313;28;20210;-58
2023/03/21 11:27:21;;;;;;;2.40;1.42;;;22.30;82.70;;;;;;5054240;28;20198;-58
2023/03/21 11:29:50;;;;;;;1.30;1.05;;;22.30;81.30;;;;;;5053408;28;20305;-60
2023/03/21 11:32:22;;;;;;;1.55;0.80;;;22.20;77.50;;;;;;5054654;28;20221;-60
2023/03/21 11:34:53;;;;;;;3.22;1.20;;;22.00;78.20;;;;;;5052948;28;20210;-58
2023/03/21 11:37:25;;;;;;;3.22;1.63;;;22.00;80.20;;;;;;5052479;28;20229;-62
2023/03/21 11:39:57;;;;;;;1.42;1.10;;;22.20;80.90;;;;;;5051925;28;20708;-59
2023/03/21 11:42:30;;;;;;;1.60;1.13;;;22.40;77.70;;;;;;5051631;28;20228;-57
2023/03/21 11:45:10;;;;;;;2.50;1.63;;;22.40;78.20;;;;;;5051919;28;20201;-57
2023/03/21 11:47:38;;;;;;;2.25;1.23;;;22.40;79.60;;;;;;5051941;28;20213;-58
2023/03/21 11:50:20;;;;;;;4.32;2.33;;;22.40;79.80;;;;;;5051213;28;20243;-59
2023/03/21 11:53:15;;;;;;;3.22;1.83;;;22.10;82.10;;;;;;5051746;28;20233;-58
2023/03/21 11:55:53;;;;;;;2.20;1.63;;;22.00;81.10;;;;;;5051293;28;20573;-59
2023/03/21 11:58:37;;;;;;;2.13;1.60;;;21.60;82.50;;;;;;5051269;28;20673;-60
2023/03/21 12:01:11;;;;;;;2.10;1.75;;;21.10;83.50;;;;;;5050847;28;20586;-58
2023/03/21 12:03:58;;;;;;;2.38;1.77;;;20.90;85.30;;;;;;5051324;28;20244;-58
2023/03/21 12:06:32;;;;;;;3.63;1.80;;;20.90;85.10;;;;;;5051712;28;20284;-57
2023/03/21 12:09:25;;;;;;;2.47;1.38;;;20.80;84.90;;;;;;5051433;28;20210;-58
2023/03/21 12:12:04;;;;;;;2.83;1.60;;;20.90;85.80;;;;;;5051255;28;20229;-58
2023/03/21 12:14:42;;;;;;;2.47;1.65;;;20.80;85.90;;;;;;5050911;28;20213;-57
2023/03/21 12:17:21;;;;;;;2.47;1.77;;;20.70;86.50;;;;;;5051079;28;20225;-58
2023/03/21 12:20:26;;;;;;;3.60;1.50;;;20.70;84.60;;;;;;5050681;28;20216;-58
2023/03/21 12:23:33;;;;;;;2.75;1.58;;;20.30;85.60;;;;;;5044439;28;20316;-59
2023/03/21 12:26:10;;;;;;;3.15;1.77;;;20.30;86.20;;;;;;5050312;28;20208;-58
2023/03/21 12:28:51;;;;;;;2.03;1.73;;;20.20;86.70;;;;;;5050775;28;20680;-58
2023/03/21 12:31:28;;;;;;;2.90;1.85;;;20.50;87.00;;;;;;5050691;28;20223;-58
2023/03/21 12:34:06;;;;;;;2.47;1.65;;;20.70;86.70;;;;;;5050975;28;20669;-59
2023/03/21 12:36:58;;;;;;;2.67;1.80;;;20.60;85.80;;;;;;5053162;28;20221;-59
2023/03/21 12:39:30;;;;;;;3.03;1.70;;;20.40;86.90;;;;;;5054741;28;20205;-58
2023/03/21 12:42:18;;;;;;;4.80;1.90;;;20.10;87.90;;;;;;5055288;28;20225;-59
2023/03/21 12:44:49;;;;;;;3.90;1.95;;;20.00;87.70;;;;;;5054904;28;20221;-58
2023/03/21 12:47:22;;;;;;;3.63;1.90;;;19.70;88.80;;;;;;5054801;28;20649;-57
2023/03/21 12:49:54;;;;;;;5.15;1.80;;;19.70;90.10;;;;;;5054251;28;20224;-58
2023/03/21 12:52:25;;;;;;;6.28;1.77;;;19.70;89.30;;;;;;5054358;28;20225;-58
2023/03/21 12:54:54;;;;;;;2.95;2.00;;;19.50;89.80;;;;;;5054813;28;20201;-59
2023/03/21 12:57:26;;;;;;;2.63;1.63;;;19.30;89.70;;;;;;5054582;28;20256;-58
2023/03/21 12:59:59;;;;;;;4.53;1.88;;;19.20;90.60;;;;;;5053839;28;20659;-58
2023/03/21 13:02:31;;;;;;;2.75;1.90;;;19.20;90.50;;;;;;5053699;28;20240;-57
2023/03/21 13:05:06;;;;;;;4.63;2.17;;;19.40;90.30;;;;;;5054546;28;20209;-58
2023/03/21 13:07:37;;;;;;;3.05;1.80;;;19.60;90.20;;;;;;5054255;28;20209;-58